GCRR

Lanzarote Airport

Lanzarote Island, Spain
METAR GCRR 180200Z AUTO 01016KT 9999 OVC026/// 22/18 Q1015
Observed Flight Rules
Aug-18 @ 02:00 UTC (27 minutes ago) Marginal Visual Flight Rules
Wind Visibility Clouds
10° at 16 knots 10,000+ meters
  • Overcast at 2,600' AGL
Temperatures Readings
Current 22°C / 72°F
Dewpoint 18°C / 64°F
Humidity 78%
Altimeter 29.97" Hg
Pressure 1015 hPa
Elevation 40
METAR GCRR 180200Z AUTO 01016KT 9999 OVC026/// 22/18 Q1015
Observed Flight Rules
Aug-18 @ 02:00 UTC
(27 minutes ago)
MVFR
Wind Visibility
10° at 16 knots 10,000+ meters
Clouds
  • Overcast at 2,600' AGL
Temperature Dewpoint
22°C / 72°F 18°C / 64°F
Humidity Altimeter Pressure
78% 29.97" Hg 1015 hPa